createdAt,value
2023-02-24T00:01:25.001Z,9.74
2023-02-24T00:03:56.849Z,9.73
2023-02-24T00:06:26.448Z,9.76
2023-02-24T00:08:54.185Z,9.78
2023-02-24T00:11:22.178Z,9.78
2023-02-24T00:13:49.920Z,9.75
2023-02-24T00:16:18.814Z,9.73
2023-02-24T00:18:47.048Z,9.70
2023-02-24T00:21:17.799Z,9.68
2023-02-24T00:23:47.750Z,9.71
2023-02-24T00:26:17.882Z,9.72
2023-02-24T00:28:46.034Z,9.71
2023-02-24T00:31:15.608Z,9.70
2023-02-24T00:33:44.413Z,9.71
2023-02-24T00:36:15.021Z,9.68
2023-02-24T00:38:46.767Z,9.63
2023-02-24T00:41:16.254Z,9.62
2023-02-24T00:43:46.723Z,9.67
2023-02-24T00:46:17.275Z,9.67
2023-02-24T00:48:46.927Z,9.64
2023-02-24T00:51:17.883Z,9.64
2023-02-24T00:53:46.929Z,9.62
2023-02-24T00:56:16.177Z,9.61
2023-02-24T00:58:44.861Z,9.60
2023-02-24T01:01:14.512Z,9.58
2023-02-24T01:03:42.826Z,9.59
2023-02-24T01:06:12.406Z,9.65
2023-02-24T01:08:47.635Z,9.71
2023-02-24T01:11:35.222Z,9.70
2023-02-24T01:14:06.208Z,9.67
2023-02-24T01:16:34.436Z,9.63
2023-02-24T01:19:02.254Z,9.62
2023-02-24T01:21:30.112Z,9.61
2023-02-24T01:23:58.425Z,9.59
2023-02-24T01:26:28.844Z,9.60
2023-02-24T01:28:56.630Z,9.58
2023-02-24T01:31:25.356Z,9.58
2023-02-24T01:33:53.399Z,9.59
2023-02-24T01:36:22.875Z,9.62
2023-02-24T01:38:50.634Z,9.64
2023-02-24T01:41:21.253Z,9.64
2023-02-24T01:44:03.516Z,9.64
2023-02-24T01:46:33.177Z,9.63
2023-02-24T01:49:08.320Z,9.64
2023-02-24T01:51:41.980Z,9.66
2023-02-24T01:54:13.160Z,9.65
2023-02-24T01:56:42.176Z,9.68
2023-02-24T01:59:11.635Z,9.74
2023-02-24T02:01:43.003Z,9.74
2023-02-24T02:04:16.880Z,9.76
2023-02-24T02:06:45.205Z,9.79
2023-02-24T02:09:15.263Z,9.81
2023-02-24T02:11:42.851Z,9.81
2023-02-24T02:14:11.861Z,9.80
2023-02-24T02:16:56.458Z,9.82
2023-02-24T02:19:49.751Z,9.84
2023-02-24T02:22:40.211Z,9.87
2023-02-24T02:25:16.369Z,9.87
2023-02-24T02:28:07.265Z,9.84
2023-02-24T02:30:55.524Z,9.84
2023-02-24T02:34:12.683Z,9.86
2023-02-24T02:36:57.026Z,9.81
2023-02-24T02:39:35.320Z,9.81
2023-02-24T02:42:14.718Z,9.77
2023-02-24T02:44:55.865Z,9.78
2023-02-24T02:47:29.457Z,9.79
2023-02-24T02:50:02.504Z,9.80
2023-02-24T02:52:35.571Z,9.84
2023-02-24T02:55:09.313Z,9.83
2023-02-24T02:57:40.138Z,9.82
2023-02-24T03:00:13.896Z,9.82
2023-02-24T03:02:45.996Z,9.84
2023-02-24T03:05:20.263Z,9.87
2023-02-24T03:07:54.648Z,9.87
2023-02-24T03:10:27.547Z,9.89
2023-02-24T03:12:58.397Z,9.88
2023-02-24T03:15:30.287Z,9.87
2023-02-24T03:18:02.798Z,9.87
2023-02-24T03:20:34.288Z,9.87
2023-02-24T03:23:06.130Z,9.85
2023-02-24T03:25:39.534Z,9.86
2023-02-24T03:28:16.245Z,9.92
2023-02-24T03:30:48.055Z,9.93
2023-02-24T03:33:24.229Z,9.93
2023-02-24T03:35:53.271Z,9.95
2023-02-24T03:38:24.345Z,9.96
2023-02-24T03:40:53.400Z,9.94
2023-02-24T03:43:27.085Z,9.85
2023-02-24T03:45:55.951Z,9.80
2023-02-24T03:48:24.781Z,9.76
2023-02-24T03:50:53.942Z,9.73
2023-02-24T03:53:32.478Z,9.76
2023-02-24T03:56:07.023Z,9.80
2023-02-24T03:58:46.158Z,9.85
2023-02-24T04:01:19.864Z,9.88
2023-02-24T04:03:57.626Z,9.88
2023-02-24T04:06:35.020Z,9.84
2023-02-24T04:09:11.738Z,9.83
2023-02-24T04:11:46.940Z,9.81
2023-02-24T04:14:24.703Z,9.78
2023-02-24T04:17:00.962Z,9.78
2023-02-24T04:19:33.125Z,9.81
2023-02-24T04:22:04.640Z,9.84
2023-02-24T04:24:34.648Z,9.85
2023-02-24T04:27:06.277Z,9.81
2023-02-24T04:29:40.406Z,9.79
2023-02-24T04:32:11.236Z,9.80
2023-02-24T04:34:40.335Z,9.84
2023-02-24T04:37:09.602Z,9.80
2023-02-24T04:39:38.436Z,9.78
2023-02-24T04:42:06.559Z,9.77
2023-02-24T04:44:34.329Z,9.68
2023-02-24T04:47:01.864Z,9.63
2023-02-24T04:49:29.506Z,9.59
2023-02-24T04:51:57.197Z,9.55
2023-02-24T04:54:26.110Z,9.51
2023-02-24T04:56:54.028Z,9.47
2023-02-24T04:59:23.321Z,9.45
2023-02-24T05:01:53.029Z,9.44
2023-02-24T05:04:20.870Z,9.42
2023-02-24T05:06:49.279Z,9.42
2023-02-24T05:09:18.543Z,9.42
2023-02-24T05:11:50.324Z,9.42
2023-02-24T05:14:20.867Z,9.41
2023-02-24T05:16:49.928Z,9.39
2023-02-24T05:19:38.200Z,9.41
2023-02-24T05:22:07.025Z,9.44
2023-02-24T05:24:35.317Z,9.49
2023-02-24T05:27:04.316Z,9.53
2023-02-24T05:29:35.572Z,9.49
2023-02-24T05:32:05.646Z,9.44
2023-02-24T05:34:34.403Z,9.44
2023-02-24T05:37:07.062Z,9.45
2023-02-24T05:39:35.106Z,9.48
2023-02-24T05:42:06.685Z,9.55
2023-02-24T05:44:35.679Z,9.57
2023-02-24T05:47:05.396Z,9.58
2023-02-24T05:49:35.019Z,9.65
2023-02-24T05:52:08.847Z,9.69
2023-02-24T05:54:39.903Z,9.69
2023-02-24T05:57:11.985Z,9.68
2023-02-24T05:59:40.979Z,9.65
2023-02-24T06:02:12.340Z,9.58
2023-02-24T06:04:46.541Z,9.51
2023-02-24T06:07:18.979Z,9.46
2023-02-24T06:09:50.031Z,9.42
2023-02-24T06:12:20.822Z,9.45
2023-02-24T06:14:48.981Z,9.46
2023-02-24T06:17:18.514Z,9.48
2023-02-24T06:19:46.853Z,9.49
2023-02-24T06:22:16.024Z,9.47
2023-02-24T06:24:45.211Z,9.48
2023-02-24T06:27:18.034Z,9.47
2023-02-24T06:29:50.011Z,9.45
2023-02-24T06:32:18.548Z,9.43
2023-02-24T06:34:46.510Z,9.39
2023-02-24T06:37:15.858Z,9.38
2023-02-24T06:39:44.029Z,9.40
2023-02-24T06:42:12.908Z,9.39
2023-02-24T06:44:42.654Z,9.39
2023-02-24T06:47:14.053Z,9.42
2023-02-24T06:49:42.711Z,9.44
2023-02-24T06:52:11.822Z,9.46
2023-02-24T06:54:39.704Z,9.48
2023-02-24T06:57:09.795Z,9.47
2023-02-24T06:59:37.358Z,9.48
2023-02-24T07:02:07.906Z,9.52
2023-02-24T07:04:43.664Z,9.51
2023-02-24T07:07:14.064Z,9.49
2023-02-24T07:09:44.046Z,9.48
2023-02-24T07:12:12.622Z,9.47
2023-02-24T07:14:40.943Z,9.47
2023-02-24T07:17:08.987Z,9.43
2023-02-24T07:19:38.110Z,9.42
2023-02-24T07:22:05.667Z,9.42
2023-02-24T07:24:37.099Z,9.46
2023-02-24T07:27:06.355Z,9.46
2023-02-24T07:29:36.021Z,9.44
2023-02-24T07:32:05.911Z,9.38
2023-02-24T07:34:34.192Z,9.36
2023-02-24T07:37:07.915Z,9.42
2023-02-24T07:39:37.496Z,9.45
2023-02-24T07:42:07.595Z,9.46
2023-02-24T07:44:35.203Z,9.51
2023-02-24T07:47:07.674Z,9.55
2023-02-24T07:49:36.141Z,9.59
2023-02-24T07:52:08.071Z,9.56
2023-02-24T07:54:36.209Z,9.56
2023-02-24T07:57:03.849Z,9.58
2023-02-24T07:59:33.553Z,9.62
2023-02-24T08:02:04.741Z,9.65
2023-02-24T08:04:33.833Z,9.68
2023-02-24T08:07:03.350Z,9.73
2023-02-24T08:10:00.533Z,9.74
2023-02-24T08:12:29.754Z,9.71
2023-02-24T08:15:00.216Z,9.68
2023-02-24T08:17:28.305Z,9.68
2023-02-24T08:20:18.753Z,9.68
2023-02-24T08:22:47.360Z,9.73
2023-02-24T08:25:19.429Z,9.77
2023-02-24T08:28:06.753Z,9.78
2023-02-24T08:30:39.605Z,9.79
2023-02-24T08:33:10.455Z,9.84
2023-02-24T08:35:44.610Z,9.86
2023-02-24T08:38:15.624Z,9.86
2023-02-24T08:40:55.078Z,9.92
2023-02-24T08:43:32.905Z,9.96
2023-02-24T08:46:04.390Z,9.99
2023-02-24T08:48:37.353Z,10.01
2023-02-24T08:51:09.706Z,10.01
2023-02-24T08:53:40.565Z,10.01
2023-02-24T08:56:12.863Z,10.04
2023-02-24T08:58:47.025Z,10.04
2023-02-24T09:01:24.086Z,10.05
2023-02-24T09:03:54.759Z,10.08
2023-02-24T09:06:36.403Z,10.06
2023-02-24T09:09:21.098Z,10.09
2023-02-24T09:11:55.691Z,10.09
2023-02-24T09:14:28.566Z,10.07
2023-02-24T09:17:05.401Z,10.09
2023-02-24T09:19:55.889Z,10.11
2023-02-24T09:22:57.278Z,10.16
2023-02-24T09:25:26.061Z,10.20
2023-02-24T09:27:57.098Z,10.21
2023-02-24T09:30:50.940Z,10.19
2023-02-24T09:33:22.298Z,10.19
2023-02-24T09:36:03.005Z,10.21
2023-02-24T09:38:57.780Z,10.19
2023-02-24T09:41:34.187Z,10.16
2023-02-24T09:44:07.912Z,10.16
2023-02-24T09:46:53.836Z,10.20
2023-02-24T09:49:25.509Z,10.24
2023-02-24T09:52:00.492Z,10.27
2023-02-24T09:54:32.716Z,10.27
2023-02-24T09:57:09.208Z,10.27
2023-02-24T10:00:00.951Z,10.30
2023-02-24T10:02:44.284Z,10.31
2023-02-24T10:05:24.763Z,10.31
2023-02-24T10:07:53.204Z,10.31
2023-02-24T10:10:28.205Z,10.30
2023-02-24T10:13:13.103Z,10.28
2023-02-24T10:15:59.120Z,10.28
2023-02-24T10:18:32.901Z,10.29
2023-02-24T10:21:07.462Z,10.30
2023-02-24T10:23:56.410Z,10.35
2023-02-24T10:26:51.252Z,10.31
2023-02-24T10:29:36.349Z,10.28
2023-02-24T10:32:23.513Z,10.24
2023-02-24T10:34:51.436Z,10.23
2023-02-24T10:37:28.693Z,10.26
2023-02-24T10:39:58.706Z,10.33
2023-02-24T10:42:27.635Z,10.37
2023-02-24T10:45:17.557Z,10.43
2023-02-24T10:47:57.411Z,10.47
2023-02-24T10:50:32.127Z,10.50
2023-02-24T10:53:39.851Z,10.53
2023-02-24T10:56:27.382Z,10.52
2023-02-24T11:05:38.138Z,10.28
2023-02-24T11:08:36.527Z,10.15
2023-02-24T11:11:20.254Z,10.07
2023-02-24T11:14:13.433Z,10.08
2023-02-24T11:17:09.831Z,10.06
2023-02-24T11:19:43.973Z,9.98
2023-02-24T11:22:16.237Z,9.98
2023-02-24T11:24:46.118Z,9.90
2023-02-24T11:27:14.953Z,9.84
2023-02-24T11:29:55.034Z,9.86
2023-02-24T11:32:39.669Z,9.95
2023-02-24T11:35:18.178Z,10.03
2023-02-24T11:38:00.484Z,10.08
2023-02-24T11:40:31.812Z,10.09
2023-02-24T11:43:04.620Z,10.13
2023-02-24T11:45:34.456Z,10.15
2023-02-24T11:48:06.528Z,10.11
2023-02-24T11:50:44.476Z,10.04
2023-02-24T11:53:33.698Z,9.95
2023-02-24T11:56:04.728Z,9.89
2023-02-24T11:58:41.849Z,9.80
2023-02-24T12:01:15.995Z,9.76
2023-02-24T12:03:53.680Z,9.74
2023-02-24T12:06:28.088Z,9.72
2023-02-24T12:09:02.688Z,9.76
2023-02-24T12:11:40.146Z,9.81
2023-02-24T12:14:20.038Z,9.87
2023-02-24T12:16:53.957Z,9.81
2023-02-24T12:19:28.613Z,9.67
2023-02-24T12:22:03.040Z,9.65
2023-02-24T12:24:32.048Z,9.64
2023-02-24T12:27:08.482Z,9.62
2023-02-24T12:30:05.571Z,9.56
2023-02-24T12:32:52.243Z,9.56
2023-02-24T12:35:26.764Z,9.64
2023-02-24T12:38:12.396Z,9.66
2023-02-24T12:40:47.950Z,9.70
2023-02-24T12:43:26.246Z,9.76
2023-02-24T12:46:04.250Z,9.78
2023-02-24T12:49:00.164Z,9.81
2023-02-24T12:51:33.522Z,9.82
2023-02-24T12:54:10.786Z,9.86
2023-02-24T12:56:46.630Z,9.88
2023-02-24T12:59:18.303Z,9.92
2023-02-24T13:01:54.953Z,9.95
2023-02-24T13:04:37.187Z,10.01
2023-02-24T13:07:13.306Z,10.15
2023-02-24T13:09:48.177Z,10.33
2023-02-24T13:12:27.123Z,10.47
2023-02-24T13:14:55.000Z,10.55
2023-02-24T13:17:26.929Z,10.60
2023-02-24T13:19:56.368Z,10.60
2023-02-24T13:22:27.968Z,10.56
2023-02-24T13:25:04.433Z,10.46
2023-02-24T13:27:36.041Z,10.34
2023-02-24T13:30:08.212Z,10.24
2023-02-24T13:32:38.494Z,10.23
2023-02-24T13:35:28.119Z,10.28
2023-02-24T13:37:55.678Z,10.30
2023-02-24T13:40:26.544Z,10.33
2023-02-24T13:43:01.065Z,10.31
2023-02-24T13:45:29.935Z,10.22
2023-02-24T13:48:21.952Z,10.18
2023-02-24T13:51:11.314Z,10.15
2023-02-24T13:53:57.678Z,10.10
2023-02-24T13:56:41.094Z,10.13
2023-02-24T13:59:24.149Z,10.19
2023-02-24T14:01:52.631Z,10.22
2023-02-24T14:04:26.830Z,10.21
2023-02-24T14:06:59.425Z,10.15
2023-02-24T14:09:31.959Z,10.13
2023-02-24T14:12:03.941Z,10.16
2023-02-24T14:14:38.920Z,10.20
2023-02-24T14:17:06.462Z,10.25
2023-02-24T14:19:34.010Z,10.31
2023-02-24T14:22:02.291Z,10.29
2023-02-24T14:24:30.093Z,10.27
2023-02-24T14:26:59.807Z,10.24
2023-02-24T14:29:31.932Z,10.21
2023-02-24T14:32:02.348Z,10.14
2023-02-24T14:34:33.917Z,10.07
2023-02-24T14:37:04.575Z,10.05
2023-02-24T14:39:34.197Z,10.05
2023-02-24T14:42:12.869Z,10.04
2023-02-24T14:44:43.692Z,9.99
2023-02-24T14:47:15.204Z,9.95
2023-02-24T14:49:43.521Z,10.01
2023-02-24T14:52:17.533Z,10.08
2023-02-24T14:54:49.093Z,10.14
2023-02-24T14:57:20.739Z,10.17
2023-02-24T14:59:53.285Z,10.15
2023-02-24T15:02:29.716Z,10.14
2023-02-24T15:04:58.322Z,10.13
2023-02-24T15:07:29.701Z,10.12
2023-02-24T15:09:58.207Z,10.10
2023-02-24T15:12:32.079Z,10.07
2023-02-24T15:15:03.793Z,10.04
2023-02-24T15:17:33.274Z,10.00
2023-02-24T15:20:00.824Z,9.96
2023-02-24T15:22:33.184Z,9.87
2023-02-24T15:25:18.616Z,9.83
2023-02-24T15:27:52.248Z,9.80
2023-02-24T15:30:29.613Z,9.78
2023-02-24T15:33:04.888Z,9.76
2023-02-24T15:35:34.277Z,9.72
2023-02-24T15:38:03.117Z,9.72
2023-02-24T15:43:11.859Z,9.66
2023-02-24T15:45:40.944Z,9.65
2023-02-24T15:48:21.947Z,9.66
2023-02-24T15:50:50.552Z,9.70
2023-02-24T15:53:18.245Z,9.65
2023-02-24T15:55:45.892Z,9.61
2023-02-24T15:58:17.842Z,9.62
2023-02-24T16:00:45.802Z,9.65
2023-02-24T16:03:13.470Z,9.65
2023-02-24T16:05:42.327Z,9.59
2023-02-24T16:08:13.961Z,9.52
2023-02-24T16:10:41.760Z,9.45
2023-02-24T16:13:18.400Z,9.43
2023-02-24T16:15:46.493Z,9.41
2023-02-24T16:18:21.927Z,9.40
2023-02-24T16:20:54.291Z,9.43
2023-02-24T16:23:23.023Z,9.48
2023-02-24T16:25:54.510Z,9.47
2023-02-24T16:28:23.449Z,9.41
2023-02-24T16:30:51.896Z,9.37
2023-02-24T16:33:22.553Z,9.39
2023-02-24T16:35:53.280Z,9.39
2023-02-24T16:38:22.605Z,9.42
2023-02-24T16:40:50.922Z,9.45
2023-02-24T16:43:18.700Z,9.49
2023-02-24T16:45:47.298Z,9.55
2023-02-24T16:48:20.593Z,9.53
2023-02-24T16:50:49.196Z,9.54
2023-02-24T16:53:19.770Z,9.54
2023-02-24T16:55:48.353Z,9.55
2023-02-24T16:58:16.627Z,9.54
2023-02-24T17:00:46.714Z,9.48
2023-02-24T17:03:19.106Z,9.49
2023-02-24T17:05:46.844Z,9.56
2023-02-24T17:08:17.359Z,9.53
2023-02-24T17:10:47.343Z,9.53
2023-02-24T17:13:17.186Z,9.56
2023-02-24T17:15:45.095Z,9.54
2023-02-24T17:18:13.101Z,9.54
2023-02-24T17:20:42.210Z,9.55
2023-02-24T17:23:10.940Z,9.51
2023-02-24T17:25:38.719Z,9.48
2023-02-24T17:28:08.288Z,9.50
2023-02-24T17:30:45.796Z,9.49
2023-02-24T17:33:18.971Z,9.47
2023-02-24T17:36:01.486Z,9.46
2023-02-24T17:38:43.684Z,9.51
2023-02-24T17:41:14.772Z,9.55
2023-02-24T17:43:46.681Z,9.56
2023-02-24T17:46:14.600Z,9.57
2023-02-24T17:48:43.697Z,9.58
2023-02-24T17:51:14.812Z,9.56
2023-02-24T17:53:50.703Z,9.55
2023-02-24T17:56:43.159Z,9.53
2023-02-24T17:59:18.179Z,9.52
2023-02-24T18:01:46.391Z,9.51
2023-02-24T18:04:14.721Z,9.47
2023-02-24T18:06:42.735Z,9.44
2023-02-24T18:09:10.362Z,9.44
2023-02-24T18:11:38.026Z,9.38
2023-02-24T18:14:05.604Z,9.40
2023-02-24T18:16:35.236Z,9.40
2023-02-24T18:19:02.811Z,9.39
2023-02-24T18:21:30.338Z,9.37
2023-02-24T18:23:58.533Z,9.37
2023-02-24T18:26:26.579Z,9.37
2023-02-24T18:28:54.984Z,9.39
2023-02-24T18:31:29.858Z,9.41
2023-02-24T18:34:10.867Z,9.40
2023-02-24T18:36:39.298Z,9.37
2023-02-24T18:39:12.927Z,9.33
2023-02-24T18:41:43.786Z,9.28
2023-02-24T18:44:23.954Z,9.21
2023-02-24T18:47:02.393Z,9.18
2023-02-24T18:49:39.722Z,9.17
2023-02-24T18:52:13.238Z,9.19
2023-02-24T18:54:44.647Z,9.20
2023-02-24T18:57:34.802Z,9.20
2023-02-24T19:00:13.969Z,9.14
2023-02-24T19:02:53.732Z,9.07
2023-02-24T19:05:37.862Z,9.04
2023-02-24T19:08:11.016Z,9.02
2023-02-24T19:10:45.267Z,8.98
2023-02-24T19:16:28.244Z,8.94
2023-02-24T19:19:00.744Z,8.92
2023-02-24T19:21:36.210Z,8.90
2023-02-24T19:24:11.981Z,8.89
2023-02-24T19:26:44.554Z,8.86
2023-02-24T19:29:17.576Z,8.82
2023-02-24T19:31:54.047Z,8.79
2023-02-24T19:34:44.654Z,8.79
2023-02-24T19:37:21.365Z,8.76
2023-02-24T19:40:03.438Z,8.76
2023-02-24T19:42:34.730Z,8.78
2023-02-24T19:45:11.719Z,8.81
2023-02-24T19:47:45.216Z,8.81
2023-02-24T19:50:17.081Z,8.78
2023-02-24T19:53:00.734Z,8.73
2023-02-24T19:55:38.421Z,8.70
2023-02-24T19:58:09.583Z,8.71
2023-02-24T20:00:39.343Z,8.68
2023-02-24T20:03:12.282Z,8.69
2023-02-24T20:05:45.758Z,8.69
2023-02-24T20:08:35.416Z,8.65
2023-02-24T20:11:07.066Z,8.65
2023-02-24T20:13:35.290Z,8.63
2023-02-24T20:16:11.796Z,8.63
2023-02-24T20:18:40.745Z,8.60
2023-02-24T20:21:14.906Z,8.56
2023-02-24T20:23:47.027Z,8.52
2023-02-24T20:26:16.645Z,8.50
2023-02-24T20:28:48.278Z,8.46
2023-02-24T20:31:20.585Z,8.44
2023-02-24T20:33:50.533Z,8.42
2023-02-24T20:36:21.864Z,8.43
2023-02-24T20:38:57.771Z,8.42
2023-02-24T20:41:27.766Z,8.42
2023-02-24T20:43:59.304Z,8.43
2023-02-24T20:46:29.795Z,8.44
2023-02-24T20:49:02.201Z,8.38
2023-02-24T20:51:32.476Z,8.37
2023-02-24T20:54:04.318Z,8.37
2023-02-24T20:56:36.145Z,8.37
2023-02-24T20:59:11.460Z,8.35
2023-02-24T21:01:41.071Z,8.37
2023-02-24T21:04:09.500Z,8.37
2023-02-24T21:06:41.406Z,8.35
2023-02-24T21:09:15.543Z,8.29
2023-02-24T21:11:47.294Z,8.17
2023-02-24T21:14:19.526Z,8.03
2023-02-24T21:16:50.685Z,7.89
2023-02-24T21:19:22.748Z,7.73
2023-02-24T21:21:52.244Z,7.60
2023-02-24T21:24:33.080Z,7.52
2023-02-24T21:27:03.348Z,7.40
2023-02-24T21:29:31.322Z,7.35
2023-02-24T21:32:00.561Z,7.32
2023-02-24T21:34:29.134Z,7.32
2023-02-24T21:37:02.126Z,7.30
2023-02-24T21:39:32.543Z,7.23
2023-02-24T21:42:00.398Z,7.18
2023-02-24T21:44:28.882Z,7.12
